Startpagina
METAR-TAF:

METAR-TAF

Vliegvelden :

Ouagadougou, Burkina Faso

Luchthaven Ouagadougou Internationaal

breedte: 12-21N, lengte: 001-31W, hoogte: 316 m

Actueel weer

Dit bericht is 44 minuten geleden gemaakt, om 06:00 UTC
Wind 4 kt uit het westzuidwesten
Temperatuur 25°C
Vochtigheid 94%
Druk 1014 hPa
Zicht 10 km of meer
geen wolken onder 1500 m en geen cumulonimbus

METAR: DFFD 280600Z 24004KT CAVOK 25/24 Q1014 NOSIG

Tijdstip: 06:44 (06:44 UTC)

Verwachting

Dit bericht is 1 uur en het 44 minuten geleden gemaakt, om 05:00 UTC
Verwachting geldig van 28 om 06 UTC tot 29 om 12 UTC
Wind 10 kt uit het zuidwesten
Zicht 10 km of meer
Weinig wolken op 2000 ft
Tijdelijke
van 28 om 08 UTC tot 28 om 16 UTC
Wind 25 kt uit het oosten met uitschieters tot 35 kt
Zicht: 3500 m
Verspreide wolken op 2000 ft
Weinig wolken op 3300 ft, Cumulonimbus.
Squall-lijnen, Stuifzand, onweer, regen

TAF: DFFD 280500Z 2806/2912 22010KT 9999 FEW020 TEMPO 2808/2816 09025G35KT 3500 SQ BLSA TSRA SCT020 FEW033CB

Waarnemingen en weersverwachtingen van meer dan 4000 vliegvelden (METAR en TAF).

De beschikbare stations zijn de gele en rode punten op de kaart.

Ga met uw muis naar het station om de naam te zien.

Klik dan om waarnemingen en weersverwachtingen te zien.

kaart wijzigen: klik op de groene knoppen met een zwart kruis om in te zoomen, op de groene knop met een streepje om uit te zoomen of op de groene pijlen voor aangrenzende kaarten.


METAR-TAF: